Flight Information

DEPARTURE
FULLERTON, CA
Elevation:
96
Runways:
H1 - 37x37 - CONC
6/24 - 3121x75 - ASPH-G
Active PE Departure:
6
Current PE ATIS:
Q
Altimeter:
30.01
Remarks:
ATIS:
125.05 714-870-6222
Ground:
121.8
Tower:
119.1
DESTINATION
,
Elevation:
TPA:
1000 (est.)


6775.3 NM74° True-14° Var59° HDG

Flight Plan:
(click to file on line)

1. Type
2. Aircraft Identification
3. Aircraft Type / Special Equipment
4. True Airspeed
kts
5. Departure Airport
(ICAO code)
6. Arriving Airport
(ICAO code)
7. Cruising Altitude
ft
8. Alternate Airport
(ICAO code)
9. Route of Flight
10. Remarks


00:00:00 Departure ATIS: Destination ATIS:

Clearance Limit:
Route:
Altitude: Expect in minutes
Frequency:
Transponder: (7500 Hijack / 7600 Lost Comms / 7700 Emergency)


KFUL 221553Z 08006KT 10SM BKN028 13/07 A3001 RMK AO2 SLP162 T01280067
Time: 2021-01-22T15:53:00Z
1611333705
Winds: 80 @ 6 kts
Visibility: 10.0 sm
Clouds (AGL): BKN 2800
Temperature: 12.8 C
Dew Point: 6.7 C
Pressure: 30.008858 in Hgbr


Notes:

Data extracted from FAA Digital Chart Supplement. Effective: 0901Z Thursday, Dec 31, 2020 to 0901Z Thursday, Jan 28, 2021
Current ATIS data is provided courtisy of PilotEdge.